Time;durP1;ratioP1;P1;durP2;ratioP2;P2;SDS_P1;SDS_P2;PMS_P1;PMS_P2;Temp;Humidity;BMP_temperature;BMP_pressure;BME280_temperature;BME280_humidity;BME280_pressure;Samples;Min_cycle;Max_cycle;Signal;HPM_P1;HPM_P2
2022/12/07 00:01:35;;;;;;;4.55;2.42;;;4.20;99.90;;;;;;5004667;28;20045;-70
2022/12/07 00:04:06;;;;;;;5.57;2.10;;;4.20;99.90;;;;;;4993818;28;20042;-71
2022/12/07 00:06:37;;;;;;;2.90;1.90;;;4.30;99.90;;;;;;4987838;28;20077;-70
2022/12/07 00:09:09;;;;;;;6.47;2.30;;;4.30;99.90;;;;;;4989604;28;20671;-71
2022/12/07 00:11:35;;;;;;;4.47;2.00;;;4.30;99.90;;;;;;4985884;28;20046;-71
2022/12/07 00:14:03;;;;;;;4.47;1.92;;;4.30;99.90;;;;;;5016452;28;20048;-71
2022/12/07 00:16:31;;;;;;;11.20;2.05;;;4.30;99.90;;;;;;4997176;28;20042;-71
2022/12/07 00:18:57;;;;;;;5.57;2.28;;;4.20;99.90;;;;;;4988580;28;20049;-71
2022/12/07 00:21:25;;;;;;;9.43;1.90;;;4.20;99.90;;;;;;4993582;28;20034;-70
2022/12/07 00:23:52;;;;;;;9.98;2.55;;;4.10;99.90;;;;;;4989442;28;20483;-70
2022/12/07 00:26:24;;;;;;;9.52;2.22;;;4.10;99.90;;;;;;5009100;28;20896;-70
2022/12/07 00:28:52;;;;;;;7.47;2.13;;;4.00;99.90;;;;;;5011895;28;20381;-70
2022/12/07 00:31:20;;;;;;;6.32;2.30;;;4.00;99.90;;;;;;5004077;28;20045;-70
2022/12/07 00:33:46;;;;;;;5.35;1.85;;;3.90;99.90;;;;;;4996907;28;20515;-71
2022/12/07 00:36:15;;;;;;;9.40;2.50;;;3.90;99.90;;;;;;5014679;28;20121;-71
2022/12/07 00:38:41;;;;;;;10.90;2.72;;;3.90;99.90;;;;;;5015436;28;20400;-69
2022/12/07 00:41:18;;;;;;;8.18;1.98;;;3.90;99.90;;;;;;4986460;28;20517;-71
2022/12/07 00:43:45;;;;;;;8.57;2.10;;;3.90;99.90;;;;;;5009477;28;20588;-70
2022/12/07 00:46:12;;;;;;;5.93;2.10;;;3.90;99.90;;;;;;5014954;28;20038;-71
2022/12/07 00:48:38;;;;;;;11.65;2.30;;;3.90;99.90;;;;;;4987946;28;20036;-70
2022/12/07 00:51:05;;;;;;;6.05;1.92;;;3.90;99.90;;;;;;4988232;28;20038;-71
2022/12/07 00:53:31;;;;;;;6.00;1.92;;;3.90;99.90;;;;;;5014313;28;20474;-70
2022/12/07 00:55:56;;;;;;;6.65;2.13;;;4.00;99.90;;;;;;5011562;28;20068;-70
2022/12/07 00:58:25;;;;;;;7.88;2.15;;;4.10;99.90;;;;;;4990566;28;20046;-68
2022/12/07 01:00:51;;;;;;;6.63;2.00;;;4.10;99.90;;;;;;4996341;28;20057;-73
2022/12/07 01:03:17;;;;;;;13.32;2.15;;;4.10;99.90;;;;;;4997324;28;20042;-70
2022/12/07 01:05:51;;;;;;;8.43;2.13;;;4.10;99.90;;;;;;4993488;28;20082;-69
2022/12/07 01:08:17;;;;;;;5.97;2.10;;;4.10;99.90;;;;;;4994292;28;20125;-71
2022/12/07 01:10:42;;;;;;;8.05;2.08;;;4.10;99.90;;;;;;4996312;28;20125;-71
2022/12/07 01:13:08;;;;;;;13.02;2.78;;;4.00;99.90;;;;;;5014948;28;20100;-70
2022/12/07 01:15:33;;;;;;;6.93;2.05;;;4.00;99.90;;;;;;4973767;28;20069;-71
2022/12/07 01:17:59;;;;;;;6.22;2.13;;;4.00;99.90;;;;;;4996362;28;20126;-72
2022/12/07 01:20:25;;;;;;;7.18;2.30;;;4.00;99.90;;;;;;5014163;28;20054;-70
2022/12/07 01:22:50;;;;;;;6.28;2.40;;;4.00;99.90;;;;;;5001473;28;20041;-71
2022/12/07 01:25:16;;;;;;;7.05;2.72;;;4.00;99.90;;;;;;4995699;28;20443;-71
2022/12/07 01:27:41;;;;;;;9.50;3.13;;;4.10;99.90;;;;;;5014348;28;20038;-70
2022/12/07 01:30:09;;;;;;;8.85;2.58;;;4.10;99.90;;;;;;5004571;28;20093;-71
2022/12/07 01:32:35;;;;;;;7.43;2.38;;;4.10;99.90;;;;;;4991510;28;20046;-71
2022/12/07 01:35:00;;;;;;;9.70;2.40;;;4.10;99.90;;;;;;5013747;28;20038;-71
2022/12/07 01:37:26;;;;;;;11.57;2.42;;;4.10;99.90;;;;;;5008387;28;20145;-68
2022/12/07 01:39:51;;;;;;;5.32;2.00;;;4.20;99.90;;;;;;4989628;28;20042;-70
2022/12/07 01:42:18;;;;;;;9.20;2.15;;;4.20;99.90;;;;;;4992763;28;20141;-70
2022/12/07 01:45:17;;;;;;;9.45;2.28;;;4.20;99.90;;;;;;5014195;28;20038;-70
2022/12/07 01:47:49;;;;;;;6.07;2.00;;;4.20;99.90;;;;;;4990501;28;20050;-69
2022/12/07 01:50:15;;;;;;;9.52;2.00;;;4.10;99.90;;;;;;4993326;28;20050;-69
2022/12/07 01:52:43;;;;;;;11.13;2.35;;;4.10;99.90;;;;;;5013429;28;20049;-70
2022/12/07 01:55:12;;;;;;;8.70;2.17;;;4.20;99.90;;;;;;5004319;28;20057;-70
2022/12/07 01:57:41;;;;;;;7.82;2.20;;;4.10;99.90;;;;;;4998481;28;20041;-71
2022/12/07 02:00:08;;;;;;;9.07;2.42;;;4.10;99.90;;;;;;5013284;28;20030;-71
2022/12/07 02:02:40;;;;;;;7.60;2.40;;;4.10;99.90;;;;;;4995865;28;20041;-69
2022/12/07 02:05:06;;;;;;;;;;;4.20;99.90;;;;;;4984359;28;20053;-69
2022/12/07 02:07:34;;;;;;;7.45;2.33;;;4.10;99.90;;;;;;5008045;28;20306;-70
2022/12/07 02:10:21;;;;;;;7.93;2.35;;;4.10;99.90;;;;;;4995859;28;20117;-70
2022/12/07 02:12:52;;;;;;;6.60;1.98;;;4.10;99.90;;;;;;5000312;28;20041;-71
2022/12/07 02:15:21;;;;;;;5.15;2.05;;;4.10;99.90;;;;;;4995354;28;20088;-70
2022/12/07 02:18:02;;;;;;;13.20;2.20;;;4.10;99.90;;;;;;5013347;28;20124;-71
2022/12/07 02:20:38;;;;;;;9.43;1.90;;;4.20;99.90;;;;;;4991802;28;20073;-70
2022/12/07 02:23:18;;;;;;;5.35;1.77;;;4.20;99.90;;;;;;5010774;28;20492;-71
2022/12/07 02:26:06;;;;;;;9.23;2.03;;;4.20;99.90;;;;;;4993463;28;20172;-69
2022/12/07 02:28:35;;;;;;;10.10;2.10;;;4.20;99.90;;;;;;4994954;28;20066;-71
2022/12/07 02:31:07;;;;;;;11.63;2.40;;;4.10;99.90;;;;;;4985683;28;20046;-70
2022/12/07 02:34:19;;;;;;;7.85;2.45;;;4.10;99.90;;;;;;4987574;28;20038;-73
2022/12/07 02:36:51;;;;;;;5.10;2.17;;;4.00;99.90;;;;;;5001651;28;20042;-69
2022/12/07 02:39:43;;;;;;;7.45;2.22;;;3.90;99.90;;;;;;4987784;28;20296;-71
2022/12/07 02:42:27;;;;;;;12.00;2.70;;;3.80;99.90;;;;;;4994633;28;20046;-70
2022/12/07 02:44:52;;;;;;;6.35;2.10;;;3.80;99.90;;;;;;4989845;28;20046;-70
2022/12/07 02:47:21;;;;;;;5.57;1.75;;;3.70;99.90;;;;;;4994763;28;20093;-70
2022/12/07 02:49:47;;;;;;;11.18;2.03;;;3.60;99.90;;;;;;5012629;28;20080;-70
2022/12/07 02:52:12;;;;;;;5.95;1.90;;;3.60;99.90;;;;;;5012264;28;20049;-71
2022/12/07 02:54:38;;;;;;;7.95;2.25;;;3.60;99.90;;;;;;4971970;28;20054;-70
2022/12/07 02:57:35;;;;;;;6.07;2.00;;;3.60;99.90;;;;;;4986638;28;20052;-69
2022/12/07 03:00:10;;;;;;;6.25;1.70;;;3.60;99.90;;;;;;4990319;28;20048;-70
2022/12/07 03:02:36;;;;;;;5.47;1.60;;;3.60;99.90;;;;;;4999966;28;20137;-69
2022/12/07 03:05:18;;;;;;;5.32;1.95;;;3.50;99.90;;;;;;4977969;28;20188;-70
2022/12/07 03:08:21;;;;;;;7.40;1.85;;;3.60;99.90;;;;;;4992932;28;20497;-71
2022/12/07 03:11:02;;;;;;;7.15;1.80;;;3.50;99.90;;;;;;4989366;28;20050;-70
2022/12/07 03:13:43;;;;;;;9.30;2.13;;;3.60;99.90;;;;;;4994445;28;20538;-70
2022/12/07 03:16:16;;;;;;;7.20;1.65;;;3.60;99.90;;;;;;4994599;28;20504;-71
2022/12/07 03:19:05;;;;;;;11.82;2.10;;;3.60;99.90;;;;;;4978931;28;20530;-69
2022/12/07 03:21:39;;;;;;;9.90;2.20;;;3.60;99.90;;;;;;4993630;28;20037;-71
2022/12/07 03:24:11;;;;;;;4.90;1.95;;;3.60;99.90;;;;;;4994496;28;20565;-70
2022/12/07 03:26:42;;;;;;;4.10;1.65;;;3.70;99.90;;;;;;5005807;28;20077;-70
2022/12/07 03:29:22;;;;;;;5.70;1.70;;;3.60;99.90;;;;;;5007941;28;20484;-69
2022/12/07 03:32:00;;;;;;;4.25;1.75;;;3.60;99.90;;;;;;5011846;28;20512;-71
2022/12/07 03:34:40;;;;;;;6.20;2.10;;;3.60;99.90;;;;;;5001555;28;23647;-70
2022/12/07 03:37:16;;;;;;;5.72;1.60;;;3.60;99.90;;;;;;5003359;28;20107;-70
2022/12/07 03:40:02;;;;;;;8.45;2.45;;;3.50;99.90;;;;;;4987215;28;20038;-70
2022/12/07 03:42:29;;;;;;;9.95;1.58;;;3.50;99.90;;;;;;4994015;28;20038;-69
2022/12/07 03:44:55;;;;;;;7.88;1.50;;;3.50;99.90;;;;;;4985476;28;20137;-72
2022/12/07 03:47:31;;;;;;;6.72;1.50;;;3.50;99.90;;;;;;4988195;28;20117;-69
2022/12/07 03:50:05;;;;;;;7.57;1.58;;;3.50;99.90;;;;;;5012046;28;20053;-69
2022/12/07 03:52:40;;;;;;;8.27;1.50;;;3.50;99.90;;;;;;4981496;28;20134;-70
2022/12/07 03:55:29;;;;;;;8.85;1.77;;;3.60;99.90;;;;;;4975599;28;20416;-69
2022/12/07 03:58:01;;;;;;;4.57;1.40;;;3.70;99.90;;;;;;4974723;28;20046;-70
2022/12/07 04:00:27;;;;;;;6.82;1.48;;;3.70;99.90;;;;;;4979676;28;20052;-70
2022/12/07 04:02:53;;;;;;;7.07;1.58;;;3.70;99.90;;;;;;5001873;28;20029;-71
2022/12/07 04:05:19;;;;;;;7.57;1.58;;;3.70;99.90;;;;;;5011368;28;20092;-69
2022/12/07 04:07:45;;;;;;;5.90;1.60;;;3.70;99.90;;;;;;5011426;28;20038;-70
2022/12/07 04:10:11;;;;;;;6.78;1.38;;;3.70;99.90;;;;;;4984027;28;20050;-70
2022/12/07 04:12:36;;;;;;;6.53;1.40;;;3.60;99.90;;;;;;5015211;28;20041;-70
2022/12/07 04:15:03;;;;;;;4.22;1.27;;;3.50;99.90;;;;;;5013909;28;20421;-70
2022/12/07 04:17:29;;;;;;;9.27;1.80;;;3.50;99.90;;;;;;5007962;28;20053;-69
2022/12/07 04:19:54;;;;;;;6.85;1.92;;;3.40;99.90;;;;;;5003436;28;20046;-70
2022/12/07 04:22:20;;;;;;;6.60;1.50;;;3.40;99.90;;;;;;4995271;28;20072;-70
2022/12/07 04:24:46;;;;;;;8.25;1.92;;;3.30;99.90;;;;;;4994676;28;20465;-71
2022/12/07 04:27:11;;;;;;;8.35;1.88;;;3.30;99.90;;;;;;4996684;28;20042;-70
2022/12/07 04:29:37;;;;;;;4.80;1.60;;;3.20;99.90;;;;;;5015115;28;20124;-70
2022/12/07 04:32:02;;;;;;;6.63;1.50;;;3.20;99.90;;;;;;5014867;28;20069;-72
2022/12/07 04:34:28;;;;;;;6.75;1.40;;;3.20;99.90;;;;;;4993733;28;20045;-71
2022/12/07 04:36:54;;;;;;;8.43;1.77;;;3.20;99.90;;;;;;4991933;28;20038;-71
2022/12/07 04:39:21;;;;;;;9.57;1.85;;;3.20;99.90;;;;;;5012697;28;20034;-70
2022/12/07 04:41:47;;;;;;;4.03;1.42;;;3.20;99.90;;;;;;4993439;28;20042;-71
2022/12/07 04:44:14;;;;;;;6.05;1.70;;;3.10;99.90;;;;;;4996295;28;20050;-70
2022/12/07 04:46:40;;;;;;;6.70;1.90;;;3.10;99.90;;;;;;4996366;28;20052;-69
2022/12/07 04:49:06;;;;;;;4.95;1.40;;;3.10;99.90;;;;;;5014972;28;20038;-71
2022/12/07 04:51:31;;;;;;;5.22;1.52;;;3.10;99.90;;;;;;4970028;28;20515;-70
2022/12/07 04:53:57;;;;;;;8.55;1.50;;;3.10;99.90;;;;;;5007215;28;20052;-71
2022/12/07 04:56:23;;;;;;;3.75;1.70;;;3.00;99.90;;;;;;5014192;28;20538;-71
2022/12/07 04:58:51;;;;;;;10.90;1.85;;;3.00;99.90;;;;;;5007489;28;20168;-71
2022/12/07 05:01:17;;;;;;;4.65;1.45;;;3.10;99.90;;;;;;5013692;28;20042;-71
2022/12/07 05:03:43;;;;;;;13.35;1.90;;;3.10;99.90;;;;;;5014619;28;20046;-70
2022/12/07 05:06:10;;;;;;;7.78;1.48;;;3.20;99.90;;;;;;5014424;28;20048;-70
2022/12/07 05:08:36;;;;;;;12.20;1.65;;;3.30;99.90;;;;;;5007258;28;20038;-70
2022/12/07 05:11:04;;;;;;;8.63;1.83;;;3.40;99.90;;;;;;4993187;28;20542;-71
2022/12/07 05:13:30;;;;;;;9.30;1.48;;;3.30;99.90;;;;;;5000169;28;20129;-71
2022/12/07 05:15:56;;;;;;;7.45;1.20;;;3.40;99.90;;;;;;4984335;28;20071;-71
2022/12/07 05:18:22;;;;;;;4.65;1.50;;;3.40;99.90;;;;;;4985844;28;20046;-71
2022/12/07 05:20:47;;;;;;;4.32;1.42;;;3.40;99.90;;;;;;5013698;28;20037;-72
2022/12/07 05:23:13;;;;;;;8.45;1.73;;;3.50;99.90;;;;;;4996702;28;20046;-70
2022/12/07 05:25:39;;;;;;;8.75;1.52;;;3.50;99.90;;;;;;5009936;28;20046;-70
2022/12/07 05:28:05;;;;;;;2.30;0.98;;;3.40;99.90;;;;;;4996121;28;20049;-70
2022/12/07 05:30:31;;;;;;;5.70;1.40;;;3.40;99.90;;;;;;4996412;28;20042;-70
2022/12/07 05:32:57;;;;;;;5.45;1.55;;;3.40;99.90;;;;;;5008492;28;20049;-70
2022/12/07 05:35:23;;;;;;;5.55;1.75;;;3.40;99.90;;;;;;4999739;28;20134;-70
2022/12/07 05:37:48;;;;;;;7.00;1.33;;;3.40;99.90;;;;;;4994016;28;20113;-70
2022/12/07 05:40:14;;;;;;;7.78;1.50;;;3.40;99.90;;;;;;5013747;28;20554;-71
2022/12/07 05:42:40;;;;;;;8.02;1.70;;;3.40;99.90;;;;;;4992541;28;20092;-70
2022/12/07 05:45:07;;;;;;;4.25;1.35;;;3.40;99.90;;;;;;5008297;28;20042;-71
2022/12/07 05:47:33;;;;;;;7.13;1.23;;;3.30;99.90;;;;;;4992653;28;20458;-70
2022/12/07 05:49:58;;;;;;;8.00;1.55;;;3.30;99.90;;;;;;4987834;28;20046;-70
2022/12/07 05:52:24;;;;;;;5.28;1.25;;;3.20;99.90;;;;;;4994138;28;20041;-70
2022/12/07 05:54:50;;;;;;;9.10;1.63;;;3.20;99.90;;;;;;4996000;28;20077;-69
2022/12/07 05:57:16;;;;;;;3.83;1.40;;;3.10;99.90;;;;;;5004947;28;20109;-70
2022/12/07 05:59:41;;;;;;;6.10;1.40;;;3.10;99.90;;;;;;5013335;28;20037;-70
2022/12/07 06:02:10;;;;;;;4.88;1.40;;;3.10;99.90;;;;;;5013287;28;20041;-70
2022/12/07 06:04:40;;;;;;;9.10;1.23;;;3.10;99.90;;;;;;5000887;28;20126;-70
2022/12/07 06:07:07;;;;;;;6.20;1.40;;;3.10;99.90;;;;;;4976683;28;20073;-70
2022/12/07 06:09:33;;;;;;;9.05;1.80;;;3.10;99.90;;;;;;4995439;28;20073;-70
2022/12/07 06:14:44;;;;;;;8.13;1.58;;;3.10;99.90;;;;;;4992198;28;20104;-70
2022/12/07 06:17:11;;;;;;;11.73;1.80;;;3.10;99.90;;;;;;4989855;28;20033;-71
2022/12/07 06:19:37;;;;;;;4.43;1.38;;;3.10;99.90;;;;;;5011171;28;20073;-72
2022/12/07 06:22:04;;;;;;;9.95;2.08;;;3.10;99.90;;;;;;4986119;28;20504;-71
2022/12/07 06:24:31;;;;;;;6.93;1.60;;;3.10;99.90;;;;;;4990088;28;20053;-71
2022/12/07 06:26:56;;;;;;;5.20;1.58;;;3.10;99.90;;;;;;4992565;28;20054;-71
2022/12/07 06:29:22;;;;;;;9.32;1.70;;;3.10;99.90;;;;;;4994286;28;20153;-71
2022/12/07 06:31:48;;;;;;;9.10;1.58;;;3.10;99.90;;;;;;5004065;28;20472;-70
2022/12/07 06:34:18;;;;;;;9.20;2.08;;;3.00;99.90;;;;;;5008757;28;20092;-71
2022/12/07 06:36:44;;;;;;;11.13;1.48;;;3.00;99.90;;;;;;5012632;28;20042;-70
2022/12/07 06:39:10;;;;;;;4.95;1.90;;;2.90;99.90;;;;;;5003568;28;20134;-70
2022/12/07 06:41:36;;;;;;;3.15;1.40;;;2.90;99.90;;;;;;5007222;28;20042;-71
2022/12/07 06:44:03;;;;;;;10.23;1.60;;;2.90;99.90;;;;;;4993907;28;20045;-70
2022/12/07 06:46:29;;;;;;;8.60;1.65;;;3.00;99.90;;;;;;4994122;28;20053;-71
2022/12/07 06:49:01;;;;;;;7.80;1.85;;;3.10;99.90;;;;;;4988660;28;20046;-70
2022/12/07 06:51:27;;;;;;;9.07;1.30;;;3.20;99.90;;;;;;5008425;28;20411;-71
2022/12/07 06:53:52;;;;;;;6.78;1.75;;;3.30;99.90;;;;;;5009914;28;20030;-71
2022/12/07 06:56:18;;;;;;;5.57;1.60;;;3.40;99.90;;;;;;4986937;28;20045;-71
2022/12/07 06:58:43;;;;;;;7.75;1.60;;;3.50;99.90;;;;;;5009479;28;20093;-69
2022/12/07 07:01:14;;;;;;;5.30;1.85;;;3.50;99.90;;;;;;4990976;28;20046;-69
2022/12/07 07:03:40;;;;;;;4.53;1.50;;;3.60;99.90;;;;;;4990678;28;20054;-70
2022/12/07 07:06:07;;;;;;;8.82;1.67;;;3.60;99.90;;;;;;4994008;28;20045;-68
2022/12/07 07:08:34;;;;;;;9.40;1.40;;;3.60;99.90;;;;;;4984896;28;20501;-72
2022/12/07 07:11:00;;;;;;;3.40;1.45;;;3.60;99.90;;;;;;4987139;28;20496;-72
2022/12/07 07:13:26;;;;;;;5.82;1.48;;;3.50;99.90;;;;;;4985733;28;20054;-69
2022/12/07 07:15:51;;;;;;;6.03;1.58;;;3.40;99.90;;;;;;4994506;28;20080;-69
2022/12/07 07:18:17;;;;;;;7.57;1.55;;;3.40;99.90;;;;;;4978637;28;20049;-70
2022/12/07 07:20:43;;;;;;;6.18;1.55;;;3.40;99.90;;;;;;4979919;28;20053;-71
2022/12/07 07:23:08;;;;;;;12.18;1.55;;;3.40;99.90;;;;;;4990253;28;20050;-70
2022/12/07 07:25:34;;;;;;;4.10;1.58;;;3.40;99.90;;;;;;4994311;28;20453;-69
2022/12/07 07:28:00;;;;;;;6.03;1.58;;;3.50;99.90;;;;;;4986398;28;20057;-70
2022/12/07 07:30:26;;;;;;;6.68;1.70;;;3.50;99.90;;;;;;4999904;28;20034;-70
2022/12/07 07:32:59;;;;;;;9.13;1.73;;;3.60;99.90;;;;;;4993988;28;20038;-69
2022/12/07 07:35:29;;;;;;;5.65;1.98;;;3.60;99.90;;;;;;4994489;28;20050;-70
2022/12/07 07:37:55;;;;;;;5.38;1.38;;;3.60;99.90;;;;;;4984618;28;20081;-69
2022/12/07 07:40:20;;;;;;;5.97;1.50;;;3.70;99.90;;;;;;4984379;28;20121;-69
2022/12/07 07:42:51;;;;;;;7.50;1.50;;;3.70;99.90;;;;;;5005463;28;20128;-70
2022/12/07 07:45:17;;;;;;;8.15;1.60;;;3.70;99.90;;;;;;4988350;28;20415;-70
2022/12/07 07:47:43;;;;;;;7.00;1.33;;;3.70;99.90;;;;;;4993911;28;20065;-70
2022/12/07 07:50:09;;;;;;;7.28;1.70;;;3.70;99.90;;;;;;4994010;28;20077;-69
2022/12/07 07:52:34;;;;;;;7.18;1.70;;;3.70;99.90;;;;;;4986786;28;20121;-70
2022/12/07 07:55:00;;;;;;;6.53;1.75;;;3.70;99.90;;;;;;4974137;28;20130;-72
2022/12/07 07:57:27;;;;;;;6.90;2.15;;;3.70;99.90;;;;;;4994194;28;20168;-72
2022/12/07 07:59:52;;;;;;;4.38;1.55;;;3.60;99.90;;;;;;4994287;28;20436;-70
2022/12/07 08:02:19;;;;;;;7.60;1.70;;;3.60;99.90;;;;;;5001080;28;20093;-72
2022/12/07 08:04:45;;;;;;;7.40;1.88;;;3.60;99.90;;;;;;4993812;28;20068;-70
2022/12/07 08:07:12;;;;;;;7.10;1.60;;;3.60;99.90;;;;;;4993894;28;20412;-70
2022/12/07 08:09:38;;;;;;;5.65;1.85;;;3.60;99.90;;;;;;4993958;28;20042;-69
2022/12/07 08:12:04;;;;;;;11.02;2.60;;;3.70;99.90;;;;;;4987257;28;20052;-70
2022/12/07 08:14:30;;;;;;;8.77;2.33;;;3.80;99.90;;;;;;4988872;28;20038;-69
2022/12/07 08:16:57;;;;;;;7.80;2.00;;;3.90;99.90;;;;;;4993813;28;20038;-69
2022/12/07 08:19:23;;;;;;;7.47;2.15;;;3.90;99.90;;;;;;4980780;28;20062;-72
2022/12/07 08:21:49;;;;;;;7.30;1.90;;;4.00;99.90;;;;;;4990474;28;20393;-73
2022/12/07 08:24:14;;;;;;;7.90;2.20;;;4.10;99.90;;;;;;4963955;28;20130;-69
2022/12/07 08:26:41;;;;;;;5.80;1.95;;;4.10;99.90;;;;;;5011314;28;20046;-69
2022/12/07 08:29:07;;;;;;;8.57;1.70;;;4.20;99.90;;;;;;4993856;28;20034;-72
2022/12/07 08:31:32;;;;;;;5.30;1.58;;;4.20;99.90;;;;;;5002084;28;20117;-70
2022/12/07 08:33:58;;;;;;;6.63;1.73;;;4.30;99.90;;;;;;4991263;28;20046;-70
2022/12/07 08:36:24;;;;;;;7.07;1.60;;;4.30;99.90;;;;;;4998432;28;20092;-72
2022/12/07 08:38:50;;;;;;;4.93;2.10;;;4.30;99.90;;;;;;4987786;28;20061;-70
2022/12/07 08:41:16;;;;;;;5.90;1.63;;;4.30;99.90;;;;;;4993121;28;20040;-70
2022/12/07 08:43:42;;;;;;;6.85;1.70;;;4.20;99.90;;;;;;4984292;28;20120;-69
2022/12/07 08:46:18;;;;;;;8.10;1.90;;;4.20;99.90;;;;;;5003865;28;20065;-71
2022/12/07 08:48:49;;;;;;;6.57;1.65;;;4.20;99.90;;;;;;4987219;28;20060;-72
2022/12/07 08:51:15;;;;;;;6.93;1.58;;;4.10;99.90;;;;;;5006588;28;20030;-69
2022/12/07 08:53:42;;;;;;;4.93;1.52;;;4.10;99.90;;;;;;4987839;28;20053;-69
2022/12/07 08:56:08;;;;;;;7.82;1.70;;;4.00;99.90;;;;;;4997483;28;20041;-69
2022/12/07 08:58:36;;;;;;;4.55;1.40;;;4.00;99.90;;;;;;4994569;28;20072;-70
2022/12/07 09:01:02;;;;;;;7.78;1.63;;;3.90;99.90;;;;;;4967338;28;20074;-70
2022/12/07 09:03:27;;;;;;;5.25;1.83;;;3.90;99.90;;;;;;5011763;28;20592;-70
2022/12/07 09:05:54;;;;;;;11.57;2.30;;;3.90;99.90;;;;;;4997153;28;20041;-68
2022/12/07 09:08:21;;;;;;;8.93;2.30;;;3.90;99.90;;;;;;5001342;28;20033;-70
2022/12/07 09:10:47;;;;;;;5.50;2.20;;;4.00;99.90;;;;;;4981952;28;20052;-70
2022/12/07 09:13:13;;;;;;;10.40;2.90;;;4.10;99.90;;;;;;5003072;28;20038;-70
2022/12/07 09:15:39;;;;;;;8.77;2.50;;;4.20;99.90;;;;;;4995853;28;20431;-70
2022/12/07 09:18:05;;;;;;;7.88;2.10;;;4.30;99.90;;;;;;5013182;28;20492;-73
2022/12/07 09:20:30;;;;;;;8.32;2.50;;;4.30;99.90;;;;;;4996069;28;20053;-71
2022/12/07 09:22:56;;;;;;;7.43;2.17;;;4.30;99.90;;;;;;5007457;28;20034;-72
2022/12/07 09:25:22;;;;;;;9.55;1.92;;;4.40;99.90;;;;;;4982445;28;20053;-71
2022/12/07 09:27:47;;;;;;;6.88;1.80;;;4.40;99.90;;;;;;4995247;28;20099;-72
2022/12/07 09:30:13;;;;;;;7.85;1.80;;;4.40;99.90;;;;;;4996261;28;20050;-72
2022/12/07 09:32:39;;;;;;;8.13;2.00;;;4.50;99.90;;;;;;5013848;28;20057;-71
2022/12/07 09:35:05;;;;;;;10.43;2.20;;;4.60;99.90;;;;;;4992853;28;20069;-71
2022/12/07 09:37:34;;;;;;;4.80;1.80;;;4.70;99.90;;;;;;4995987;28;20034;-71
2022/12/07 09:40:01;;;;;;;7.45;2.10;;;4.60;99.90;;;;;;4996452;28;20042;-72
2022/12/07 09:42:33;;;;;;;5.82;1.88;;;4.50;99.90;;;;;;5000878;28;20035;-72
2022/12/07 09:44:59;;;;;;;9.80;2.60;;;4.50;99.90;;;;;;5011351;28;20046;-72
2022/12/07 09:47:26;;;;;;;6.95;1.80;;;4.50;99.90;;;;;;5013556;28;20080;-71
2022/12/07 09:49:55;;;;;;;6.25;1.90;;;4.50;99.90;;;;;;5014016;28;20076;-72
2022/12/07 09:52:26;;;;;;;8.00;1.92;;;4.50;99.90;;;;;;5001804;28;20416;-72
2022/12/07 09:54:52;;;;;;;7.38;2.05;;;4.60;99.90;;;;;;5013464;28;20050;-72
2022/12/07 09:57:28;;;;;;;10.77;2.00;;;4.60;99.90;;;;;;5013553;28;20049;-73
2022/12/07 10:00:04;;;;;;;8.13;2.08;;;4.70;99.90;;;;;;4975468;28;20393;-72
2022/12/07 10:02:38;;;;;;;9.82;2.10;;;4.80;99.90;;;;;;4978664;28;20049;-71
2022/12/07 10:05:16;;;;;;;8.65;2.20;;;4.90;99.90;;;;;;5013081;28;20056;-72
2022/12/07 10:07:42;;;;;;;6.90;1.75;;;5.00;99.90;;;;;;4980585;28;20442;-72
2022/12/07 10:10:29;;;;;;;5.25;1.90;;;5.10;99.90;;;;;;4980891;28;20049;-73
2022/12/07 10:13:13;;;;;;;5.60;2.53;;;5.20;99.90;;;;;;4991983;28;20493;-73
2022/12/07 10:15:56;;;;;;;10.82;2.03;;;5.30;99.90;;;;;;4984648;28;20053;-72
2022/12/07 10:18:32;;;;;;;8.30;2.10;;;5.50;99.90;;;;;;5012656;28;20038;-73
2022/12/07 10:21:01;;;;;;;7.32;2.30;;;5.50;99.90;;;;;;4993901;28;20033;-73
2022/12/07 10:23:27;;;;;;;9.10;3.22;;;5.60;99.90;;;;;;4995697;28;20416;-73
2022/12/07 10:25:54;;;;;;;12.35;2.72;;;5.60;99.90;;;;;;4986836;28;20056;-73
2022/12/07 10:28:21;;;;;;;4.03;1.83;;;5.60;99.90;;;;;;4993047;28;20068;-73
2022/12/07 10:31:16;;;;;;;6.40;1.95;;;5.60;99.90;;;;;;4993924;28;20081;-73
2022/12/07 10:33:57;;;;;;;11.25;1.75;;;5.60;99.90;;;;;;5002944;28;20042;-73
2022/12/07 10:36:22;;;;;;;10.07;2.17;;;5.60;99.90;;;;;;4995173;28;20038;-72
2022/12/07 10:39:13;;;;;;;10.90;1.65;;;5.50;99.90;;;;;;4995389;28;20088;-71
2022/12/07 10:41:58;;;;;;;6.07;1.55;;;5.50;99.90;;;;;;4980172;28;20504;-71
2022/12/07 10:44:32;;;;;;;11.57;2.60;;;5.60;99.90;;;;;;5010986;28;20439;-72
2022/12/07 10:47:10;;;;;;;5.28;1.90;;;5.60;99.90;;;;;;4995304;28;20048;-72
2022/12/07 10:50:00;;;;;;;9.50;1.83;;;5.60;99.90;;;;;;4980111;28;20041;-72
2022/12/07 10:52:32;;;;;;;5.38;1.60;;;5.60;99.90;;;;;;4993078;28;20076;-71
2022/12/07 10:55:08;;;;;;;8.43;1.80;;;5.70;99.90;;;;;;4995107;28;20049;-71
2022/12/07 10:57:45;;;;;;;8.30;2.33;;;5.80;99.90;;;;;;4994938;28;20096;-71
2022/12/07 11:00:18;;;;;;;5.88;1.70;;;5.80;99.90;;;;;;5008924;28;20116;-71
2022/12/07 11:02:50;;;;;;;7.45;2.13;;;5.90;99.90;;;;;;4978434;28;20061;-71
2022/12/07 11:05:39;;;;;;;9.75;1.75;;;5.90;99.90;;;;;;5001952;28;20049;-72
2022/12/07 11:08:38;;;;;;;6.35;1.60;;;6.00;99.90;;;;;;4983231;28;20061;-71
2022/12/07 11:11:12;;;;;;;6.70;2.03;;;6.10;99.90;;;;;;4989829;28;20084;-72
2022/12/07 11:13:56;;;;;;;6.90;1.70;;;6.20;99.90;;;;;;4987719;28;20046;-73
2022/12/07 11:16:24;;;;;;;8.23;1.70;;;6.30;99.90;;;;;;4990273;28;20084;-72
2022/12/07 11:19:14;;;;;;;8.00;1.80;;;6.30;99.90;;;;;;5012253;28;20057;-73
2022/12/07 11:22:03;;;;;;;6.93;1.80;;;6.30;99.90;;;;;;4990345;28;20071;-73
2022/12/07 11:24:46;;;;;;;5.72;1.80;;;6.20;99.90;;;;;;4994005;28;20054;-73
2022/12/07 11:27:35;;;;;;;5.63;1.90;;;6.30;99.90;;;;;;4994485;28;20064;-73
2022/12/07 11:30:14;;;;;;;5.00;1.63;;;6.30;99.90;;;;;;5000112;28;20050;-73
2022/12/07 11:32:46;;;;;;;6.30;1.70;;;6.30;99.90;;;;;;4986553;28;20042;-73
2022/12/07 11:35:30;;;;;;;7.82;1.88;;;6.30;99.90;;;;;;4994329;28;20054;-73
2022/12/07 11:38:07;;;;;;;9.60;2.35;;;6.20;99.90;;;;;;4983213;28;20030;-73
2022/12/07 11:40:35;;;;;;;7.28;1.85;;;6.10;99.90;;;;;;5001106;28;20038;-73
2022/12/07 11:43:07;;;;;;;5.22;1.70;;;6.20;99.90;;;;;;4984348;28;20393;-72
2022/12/07 11:45:41;;;;;;;10.15;2.05;;;6.10;99.90;;;;;;4978305;28;20041;-73
2022/12/07 11:48:20;;;;;;;6.80;1.67;;;6.10;99.90;;;;;;5011573;28;20407;-72
2022/12/07 11:50:57;;;;;;;7.97;1.90;;;6.10;99.90;;;;;;4994377;28;20077;-72
2022/12/07 11:53:39;;;;;;;5.43;1.77;;;6.00;99.90;;;;;;4981337;28;20412;-73
2022/12/07 11:56:11;;;;;;;;;;;6.00;99.90;;;;;;4987547;28;20428;-72
2022/12/07 11:58:48;;;;;;;8.82;2.10;;;6.00;99.90;;;;;;5010492;28;20531;-72
2022/12/07 12:01:15;;;;;;;6.82;2.17;;;6.00;99.90;;;;;;4993925;28;20038;-72
2022/12/07 12:03:50;;;;;;;8.18;2.10;;;6.00;99.90;;;;;;5011253;28;20126;-73
2022/12/07 12:06:15;;;;;;;5.15;1.85;;;6.10;99.90;;;;;;4980983;28;20050;-72
2022/12/07 12:08:50;;;;;;;9.30;2.20;;;6.10;99.90;;;;;;4993649;28;20043;-73
2022/12/07 12:11:47;;;;;;;3.88;1.90;;;6.10;99.90;;;;;;4987676;28;20043;-72
2022/12/07 12:14:37;;;;;;;7.03;1.80;;;6.20;99.90;;;;;;5006956;28;20092;-72
2022/12/07 12:17:18;;;;;;;6.53;1.75;;;6.20;99.90;;;;;;4993738;28;20137;-72
2022/12/07 12:20:17;;;;;;;9.80;2.20;;;6.20;99.90;;;;;;4994372;28;20128;-72
2022/12/07 12:22:50;;;;;;;6.40;1.67;;;6.30;99.90;;;;;;5000476;28;20042;-72
2022/12/07 12:25:22;;;;;;;8.77;1.50;;;6.40;99.90;;;;;;4990211;28;20080;-73
2022/12/07 12:27:50;;;;;;;7.75;2.08;;;6.40;99.90;;;;;;4989857;28;20125;-72
2022/12/07 12:30:36;;;;;;;9.65;1.77;;;6.50;99.90;;;;;;5011571;28;20091;-72
2022/12/07 12:33:06;;;;;;;13.02;2.30;;;6.60;99.90;;;;;;4993792;28;20040;-72
2022/12/07 12:35:35;;;;;;;10.60;2.00;;;6.50;99.90;;;;;;4979562;28;20044;-72
2022/12/07 12:38:33;;;;;;;13.07;1.90;;;6.50;99.90;;;;;;5003605;28;20065;-72
2022/12/07 12:41:00;;;;;;;5.13;1.60;;;6.50;99.90;;;;;;4953350;28;20407;-72
2022/12/07 12:43:52;;;;;;;9.40;1.80;;;6.50;99.90;;;;;;4996981;28;20041;-72
2022/12/07 12:46:30;;;;;;;11.93;2.25;;;6.50;99.90;;;;;;4981777;28;20038;-73
2022/12/07 12:49:27;;;;;;;6.88;1.30;;;6.50;99.90;;;;;;5009528;28;20519;-73
2022/12/07 12:51:58;;;;;;;7.10;2.20;;;6.50;99.90;;;;;;4977293;28;20078;-73
2022/12/07 12:54:37;;;;;;;5.30;1.63;;;6.50;99.90;;;;;;4976015;28;20117;-73
2022/12/07 12:57:10;;;;;;;9.30;1.75;;;6.50;99.90;;;;;;4996968;28;20061;-73
2022/12/07 12:59:55;;;;;;;7.97;1.85;;;6.50;99.90;;;;;;4978028;28;20077;-73
2022/12/07 13:02:48;;;;;;;7.28;1.70;;;6.60;99.90;;;;;;4985798;28;20045;-73
2022/12/07 13:05:14;;;;;;;4.15;1.33;;;6.60;99.90;;;;;;4994627;28;20065;-73
2022/12/07 13:07:49;;;;;;;6.70;1.65;;;6.60;99.90;;;;;;4997077;28;20045;-73
2022/12/07 13:10:24;;;;;;;10.10;2.17;;;6.60;99.90;;;;;;4996950;28;20053;-73
2022/12/07 13:13:14;;;;;;;8.80;1.80;;;6.60;99.90;;;;;;4985248;28;20046;-73
2022/12/07 13:15:53;;;;;;;7.32;1.77;;;6.60;99.90;;;;;;4989242;28;20050;-73
2022/12/07 13:18:28;;;;;;;5.80;1.55;;;6.60;99.90;;;;;;5006671;28;20038;-73